sensor_id;sensor_type;location;lat;lon;timestamp;P1;durP1;ratioP1;P2;durP2;ratioP2
48203;SDS011;33994;50.998;5.864;2022-12-31T00:02:39;0.60;;;0.40;;
48203;SDS011;33994;50.998;5.864;2022-12-31T00:05:42;1.17;;;0.40;;
48203;SDS011;33994;50.998;5.864;2022-12-31T00:08:45;1.30;;;0.70;;
48203;SDS011;33994;50.998;5.864;2022-12-31T00:11:49;0.85;;;0.60;;
48203;SDS011;33994;50.998;5.864;2022-12-31T00:14:53;2.92;;;0.50;;
48203;SDS011;33994;50.998;5.864;2022-12-31T00:17:56;0.88;;;0.60;;
48203;SDS011;33994;50.998;5.864;2022-12-31T00:21:02;0.80;;;0.50;;
48203;SDS011;33994;50.998;5.864;2022-12-31T00:24:06;1.10;;;0.43;;
48203;SDS011;33994;50.998;5.864;2022-12-31T00:27:10;0.43;;;0.32;;
48203;SDS011;33994;50.998;5.864;2022-12-31T00:30:14;1.60;;;0.55;;
48203;SDS011;33994;50.998;5.864;2022-12-31T00:33:18;1.50;;;0.40;;
48203;SDS011;33994;50.998;5.864;2022-12-31T00:36:21;0.55;;;0.30;;
48203;SDS011;33994;50.998;5.864;2022-12-31T00:39:26;0.80;;;0.40;;
48203;SDS011;33994;50.998;5.864;2022-12-31T00:42:29;0.25;;;0.20;;
48203;SDS011;33994;50.998;5.864;2022-12-31T00:45:34;0.38;;;0.30;;
48203;SDS011;33994;50.998;5.864;2022-12-31T00:48:36;0.40;;;0.20;;
48203;SDS011;33994;50.998;5.864;2022-12-31T00:51:40;0.30;;;0.30;;
48203;SDS011;33994;50.998;5.864;2022-12-31T00:54:44;0.47;;;0.20;;
48203;SDS011;33994;50.998;5.864;2022-12-31T00:57:47;0.20;;;0.20;;
48203;SDS011;33994;50.998;5.864;2022-12-31T01:00:51;0.30;;;0.20;;
48203;SDS011;33994;50.998;5.864;2022-12-31T01:03:56;0.95;;;0.30;;
48203;SDS011;33994;50.998;5.864;2022-12-31T01:07:01;0.50;;;0.28;;
48203;SDS011;33994;50.998;5.864;2022-12-31T01:10:04;0.40;;;0.22;;
48203;SDS011;33994;50.998;5.864;2022-12-31T01:13:08;0.32;;;0.25;;
48203;SDS011;33994;50.998;5.864;2022-12-31T01:16:13;1.20;;;0.30;;
48203;SDS011;33994;50.998;5.864;2022-12-31T01:19:18;0.30;;;0.20;;
48203;SDS011;33994;50.998;5.864;2022-12-31T01:22:23;0.40;;;0.22;;
48203;SDS011;33994;50.998;5.864;2022-12-31T01:25:26;1.85;;;0.20;;
48203;SDS011;33994;50.998;5.864;2022-12-31T01:28:29;0.65;;;0.65;;
48203;SDS011;33994;50.998;5.864;2022-12-31T01:31:34;2.83;;;0.20;;
48203;SDS011;33994;50.998;5.864;2022-12-31T01:34:38;0.10;;;0.10;;
48203;SDS011;33994;50.998;5.864;2022-12-31T01:37:41;1.00;;;0.25;;
48203;SDS011;33994;50.998;5.864;2022-12-31T01:40:44;0.95;;;0.20;;
48203;SDS011;33994;50.998;5.864;2022-12-31T01:43:48;0.77;;;0.20;;
48203;SDS011;33994;50.998;5.864;2022-12-31T01:46:55;0.40;;;0.20;;
48203;SDS011;33994;50.998;5.864;2022-12-31T01:50:00;2.72;;;0.20;;
48203;SDS011;33994;50.998;5.864;2022-12-31T01:53:07;0.90;;;0.20;;
48203;SDS011;33994;50.998;5.864;2022-12-31T01:56:13;0.60;;;0.20;;
48203;SDS011;33994;50.998;5.864;2022-12-31T01:59:17;1.13;;;0.20;;
48203;SDS011;33994;50.998;5.864;2022-12-31T02:02:23;1.27;;;0.20;;
48203;SDS011;33994;50.998;5.864;2022-12-31T02:05:28;1.60;;;0.40;;
48203;SDS011;33994;50.998;5.864;2022-12-31T02:08:35;0.47;;;0.13;;
48203;SDS011;33994;50.998;5.864;2022-12-31T02:11:39;0.30;;;0.30;;
48203;SDS011;33994;50.998;5.864;2022-12-31T02:14:43;1.02;;;0.40;;
48203;SDS011;33994;50.998;5.864;2022-12-31T02:17:52;0.40;;;0.20;;
48203;SDS011;33994;50.998;5.864;2022-12-31T02:21:20;1.27;;;0.30;;
48203;SDS011;33994;50.998;5.864;2022-12-31T02:24:44;1.55;;;0.30;;
48203;SDS011;33994;50.998;5.864;2022-12-31T02:28:02;0.50;;;0.30;;
48203;SDS011;33994;50.998;5.864;2022-12-31T02:31:20;1.25;;;0.20;;
48203;SDS011;33994;50.998;5.864;2022-12-31T02:34:28;0.65;;;0.22;;
48203;SDS011;33994;50.998;5.864;2022-12-31T02:37:35;3.17;;;0.30;;
48203;SDS011;33994;50.998;5.864;2022-12-31T02:40:41;0.82;;;0.15;;
48203;SDS011;33994;50.998;5.864;2022-12-31T02:43:45;0.50;;;0.30;;
48203;SDS011;33994;50.998;5.864;2022-12-31T02:46:51;0.63;;;0.20;;
48203;SDS011;33994;50.998;5.864;2022-12-31T02:50:04;1.02;;;0.20;;
48203;SDS011;33994;50.998;5.864;2022-12-31T02:53:35;1.17;;;0.40;;
48203;SDS011;33994;50.998;5.864;2022-12-31T02:56:53;2.28;;;0.38;;
48203;SDS011;33994;50.998;5.864;2022-12-31T03:00:08;1.33;;;0.30;;
48203;SDS011;33994;50.998;5.864;2022-12-31T03:03:15;2.47;;;0.25;;
48203;SDS011;33994;50.998;5.864;2022-12-31T03:06:19;1.55;;;0.40;;
48203;SDS011;33994;50.998;5.864;2022-12-31T03:09:22;2.15;;;0.40;;
48203;SDS011;33994;50.998;5.864;2022-12-31T03:12:26;3.53;;;0.40;;
48203;SDS011;33994;50.998;5.864;2022-12-31T03:15:31;0.50;;;0.30;;
48203;SDS011;33994;50.998;5.864;2022-12-31T03:18:37;2.60;;;0.38;;
48203;SDS011;33994;50.998;5.864;2022-12-31T03:21:40;0.50;;;0.20;;
48203;SDS011;33994;50.998;5.864;2022-12-31T03:24:43;1.77;;;0.57;;
48203;SDS011;33994;50.998;5.864;2022-12-31T03:27:46;3.03;;;0.47;;
48203;SDS011;33994;50.998;5.864;2022-12-31T03:30:50;1.25;;;0.60;;
48203;SDS011;33994;50.998;5.864;2022-12-31T03:33:56;2.92;;;0.30;;
48203;SDS011;33994;50.998;5.864;2022-12-31T03:36:59;2.72;;;0.50;;
48203;SDS011;33994;50.998;5.864;2022-12-31T03:40:03;0.95;;;0.40;;
48203;SDS011;33994;50.998;5.864;2022-12-31T03:43:07;1.83;;;0.40;;
48203;SDS011;33994;50.998;5.864;2022-12-31T03:46:10;0.95;;;0.22;;
48203;SDS011;33994;50.998;5.864;2022-12-31T03:49:15;0.95;;;0.30;;
48203;SDS011;33994;50.998;5.864;2022-12-31T03:52:18;4.78;;;0.50;;
48203;SDS011;33994;50.998;5.864;2022-12-31T03:55:22;2.17;;;0.30;;
48203;SDS011;33994;50.998;5.864;2022-12-31T03:58:26;2.67;;;0.32;;
48203;SDS011;33994;50.998;5.864;2022-12-31T04:01:29;0.60;;;0.20;;
48203;SDS011;33994;50.998;5.864;2022-12-31T04:04:33;1.00;;;0.30;;
48203;SDS011;33994;50.998;5.864;2022-12-31T04:07:36;3.53;;;0.57;;
48203;SDS011;33994;50.998;5.864;2022-12-31T04:10:39;1.27;;;0.38;;
48203;SDS011;33994;50.998;5.864;2022-12-31T04:13:43;2.15;;;0.43;;
48203;SDS011;33994;50.998;5.864;2022-12-31T04:16:45;1.50;;;0.40;;
48203;SDS011;33994;50.998;5.864;2022-12-31T04:19:50;2.65;;;0.57;;
48203;SDS011;33994;50.998;5.864;2022-12-31T04:22:53;3.20;;;0.50;;
48203;SDS011;33994;50.998;5.864;2022-12-31T04:25:57;3.40;;;0.50;;
48203;SDS011;33994;50.998;5.864;2022-12-31T04:28:59;0.82;;;0.40;;
48203;SDS011;33994;50.998;5.864;2022-12-31T04:32:03;3.45;;;0.47;;
48203;SDS011;33994;50.998;5.864;2022-12-31T04:35:09;1.83;;;0.40;;
48203;SDS011;33994;50.998;5.864;2022-12-31T04:38:12;1.98;;;0.55;;
48203;SDS011;33994;50.998;5.864;2022-12-31T04:41:15;2.35;;;0.50;;
48203;SDS011;33994;50.998;5.864;2022-12-31T04:44:19;1.50;;;0.55;;
48203;SDS011;33994;50.998;5.864;2022-12-31T04:47:22;1.30;;;0.47;;
48203;SDS011;33994;50.998;5.864;2022-12-31T04:50:27;4.63;;;0.40;;
48203;SDS011;33994;50.998;5.864;2022-12-31T04:53:30;1.38;;;0.47;;
48203;SDS011;33994;50.998;5.864;2022-12-31T04:56:33;3.03;;;0.40;;
48203;SDS011;33994;50.998;5.864;2022-12-31T04:59:36;1.30;;;0.38;;
48203;SDS011;33994;50.998;5.864;2022-12-31T05:02:39;1.15;;;0.40;;
48203;SDS011;33994;50.998;5.864;2022-12-31T05:05:44;1.35;;;0.52;;
48203;SDS011;33994;50.998;5.864;2022-12-31T05:08:46;2.40;;;0.73;;
48203;SDS011;33994;50.998;5.864;2022-12-31T05:11:50;1.95;;;0.50;;
48203;SDS011;33994;50.998;5.864;2022-12-31T05:14:53;1.90;;;0.40;;
48203;SDS011;33994;50.998;5.864;2022-12-31T05:17:56;4.50;;;0.60;;
48203;SDS011;33994;50.998;5.864;2022-12-31T05:21:01;3.88;;;0.43;;
48203;SDS011;33994;50.998;5.864;2022-12-31T05:24:04;2.75;;;0.50;;
48203;SDS011;33994;50.998;5.864;2022-12-31T05:27:08;2.65;;;0.70;;
48203;SDS011;33994;50.998;5.864;2022-12-31T05:30:12;2.47;;;0.60;;
48203;SDS011;33994;50.998;5.864;2022-12-31T05:33:15;3.35;;;0.52;;
48203;SDS011;33994;50.998;5.864;2022-12-31T05:36:20;1.08;;;0.50;;
48203;SDS011;33994;50.998;5.864;2022-12-31T05:39:23;3.45;;;0.60;;
48203;SDS011;33994;50.998;5.864;2022-12-31T05:42:26;3.55;;;0.80;;
48203;SDS011;33994;50.998;5.864;2022-12-31T05:45:29;5.78;;;0.68;;
48203;SDS011;33994;50.998;5.864;2022-12-31T05:48:32;2.17;;;0.35;;
48203;SDS011;33994;50.998;5.864;2022-12-31T05:51:37;1.67;;;0.55;;
48203;SDS011;33994;50.998;5.864;2022-12-31T05:54:40;2.92;;;0.32;;
48203;SDS011;33994;50.998;5.864;2022-12-31T05:57:43;1.35;;;0.68;;
48203;SDS011;33994;50.998;5.864;2022-12-31T06:00:46;2.25;;;0.50;;
48203;SDS011;33994;50.998;5.864;2022-12-31T06:03:50;1.52;;;0.50;;
48203;SDS011;33994;50.998;5.864;2022-12-31T06:06:54;3.33;;;0.65;;
48203;SDS011;33994;50.998;5.864;2022-12-31T06:09:57;3.65;;;0.90;;
48203;SDS011;33994;50.998;5.864;2022-12-31T06:13:00;2.42;;;0.60;;
48203;SDS011;33994;50.998;5.864;2022-12-31T06:16:04;4.10;;;0.60;;
48203;SDS011;33994;50.998;5.864;2022-12-31T06:19:07;4.30;;;0.68;;
48203;SDS011;33994;50.998;5.864;2022-12-31T06:22:12;1.67;;;0.57;;
48203;SDS011;33994;50.998;5.864;2022-12-31T06:25:15;3.63;;;0.90;;
48203;SDS011;33994;50.998;5.864;2022-12-31T06:28:18;1.90;;;0.90;;
48203;SDS011;33994;50.998;5.864;2022-12-31T06:31:21;2.30;;;0.60;;
48203;SDS011;33994;50.998;5.864;2022-12-31T06:34:24;3.67;;;0.88;;
48203;SDS011;33994;50.998;5.864;2022-12-31T06:37:29;2.38;;;0.50;;
48203;SDS011;33994;50.998;5.864;2022-12-31T06:40:32;2.95;;;0.50;;
48203;SDS011;33994;50.998;5.864;2022-12-31T06:43:39;4.75;;;0.60;;
48203;SDS011;33994;50.998;5.864;2022-12-31T06:46:43;2.70;;;0.50;;
48203;SDS011;33994;50.998;5.864;2022-12-31T06:49:46;7.15;;;0.80;;
48203;SDS011;33994;50.998;5.864;2022-12-31T06:52:51;3.30;;;0.75;;
48203;SDS011;33994;50.998;5.864;2022-12-31T06:55:54;3.38;;;0.52;;
48203;SDS011;33994;50.998;5.864;2022-12-31T06:58:58;3.22;;;0.65;;
48203;SDS011;33994;50.998;5.864;2022-12-31T07:02:04;1.60;;;0.35;;
48203;SDS011;33994;50.998;5.864;2022-12-31T07:05:20;2.33;;;0.70;;
48203;SDS011;33994;50.998;5.864;2022-12-31T07:08:35;3.22;;;0.60;;
48203;SDS011;33994;50.998;5.864;2022-12-31T07:11:51;3.03;;;0.65;;
48203;SDS011;33994;50.998;5.864;2022-12-31T07:15:03;4.15;;;0.70;;
48203;SDS011;33994;50.998;5.864;2022-12-31T07:18:14;2.05;;;0.55;;
48203;SDS011;33994;50.998;5.864;2022-12-31T07:21:29;3.58;;;0.60;;
48203;SDS011;33994;50.998;5.864;2022-12-31T07:24:37;6.45;;;0.80;;
48203;SDS011;33994;50.998;5.864;2022-12-31T07:27:46;5.72;;;0.70;;
48203;SDS011;33994;50.998;5.864;2022-12-31T07:30:59;3.35;;;0.90;;
48203;SDS011;33994;50.998;5.864;2022-12-31T07:34:07;2.97;;;0.70;;
48203;SDS011;33994;50.998;5.864;2022-12-31T07:37:21;2.35;;;0.88;;
48203;SDS011;33994;50.998;5.864;2022-12-31T07:40:35;3.30;;;0.80;;
48203;SDS011;33994;50.998;5.864;2022-12-31T07:43:52;2.08;;;0.50;;
48203;SDS011;33994;50.998;5.864;2022-12-31T07:47:02;2.22;;;0.80;;
48203;SDS011;33994;50.998;5.864;2022-12-31T07:50:10;3.00;;;0.50;;
48203;SDS011;33994;50.998;5.864;2022-12-31T07:53:17;1.58;;;0.57;;
48203;SDS011;33994;50.998;5.864;2022-12-31T07:56:22;4.25;;;0.70;;
48203;SDS011;33994;50.998;5.864;2022-12-31T07:59:30;5.10;;;1.20;;
48203;SDS011;33994;50.998;5.864;2022-12-31T08:02:51;5.00;;;1.00;;
48203;SDS011;33994;50.998;5.864;2022-12-31T08:06:07;2.10;;;0.70;;
48203;SDS011;33994;50.998;5.864;2022-12-31T08:09:19;2.67;;;0.40;;
48203;SDS011;33994;50.998;5.864;2022-12-31T08:12:36;2.88;;;0.68;;
48203;SDS011;33994;50.998;5.864;2022-12-31T08:15:42;4.65;;;0.88;;
48203;SDS011;33994;50.998;5.864;2022-12-31T08:18:46;2.03;;;0.70;;
48203;SDS011;33994;50.998;5.864;2022-12-31T08:21:52;4.18;;;0.85;;
48203;SDS011;33994;50.998;5.864;2022-12-31T08:25:16;3.45;;;0.68;;
48203;SDS011;33994;50.998;5.864;2022-12-31T08:28:28;3.55;;;0.77;;
48203;SDS011;33994;50.998;5.864;2022-12-31T08:31:45;5.55;;;0.80;;
48203;SDS011;33994;50.998;5.864;2022-12-31T08:34:57;3.10;;;1.05;;
48203;SDS011;33994;50.998;5.864;2022-12-31T08:38:09;2.53;;;0.70;;
48203;SDS011;33994;50.998;5.864;2022-12-31T08:41:27;5.88;;;0.88;;
48203;SDS011;33994;50.998;5.864;2022-12-31T08:44:38;3.50;;;0.80;;
48203;SDS011;33994;50.998;5.864;2022-12-31T08:47:49;3.92;;;0.77;;
48203;SDS011;33994;50.998;5.864;2022-12-31T08:51:00;6.72;;;1.35;;
48203;SDS011;33994;50.998;5.864;2022-12-31T08:54:03;5.32;;;0.88;;
48203;SDS011;33994;50.998;5.864;2022-12-31T08:57:08;2.60;;;0.70;;
48203;SDS011;33994;50.998;5.864;2022-12-31T09:00:24;7.18;;;1.17;;
48203;SDS011;33994;50.998;5.864;2022-12-31T09:03:41;2.92;;;1.10;;
48203;SDS011;33994;50.998;5.864;2022-12-31T09:06:55;2.10;;;0.80;;
48203;SDS011;33994;50.998;5.864;2022-12-31T09:10:02;3.38;;;0.80;;
48203;SDS011;33994;50.998;5.864;2022-12-31T09:13:19;7.32;;;1.33;;
48203;SDS011;33994;50.998;5.864;2022-12-31T09:16:29;1.77;;;0.70;;
48203;SDS011;33994;50.998;5.864;2022-12-31T09:19:41;4.53;;;0.95;;
48203;SDS011;33994;50.998;5.864;2022-12-31T09:22:44;4.97;;;1.08;;
48203;SDS011;33994;50.998;5.864;2022-12-31T09:25:50;2.75;;;0.90;;
48203;SDS011;33994;50.998;5.864;2022-12-31T09:29:00;4.40;;;1.30;;
48203;SDS011;33994;50.998;5.864;2022-12-31T09:32:15;4.10;;;0.88;;
48203;SDS011;33994;50.998;5.864;2022-12-31T09:35:29;6.40;;;2.08;;
48203;SDS011;33994;50.998;5.864;2022-12-31T09:38:40;6.10;;;1.10;;
48203;SDS011;33994;50.998;5.864;2022-12-31T09:45:27;4.63;;;1.58;;
48203;SDS011;33994;50.998;5.864;2022-12-31T09:49:00;3.95;;;1.13;;
48203;SDS011;33994;50.998;5.864;2022-12-31T09:52:29;5.60;;;0.98;;
48203;SDS011;33994;50.998;5.864;2022-12-31T09:55:46;3.30;;;1.02;;
48203;SDS011;33994;50.998;5.864;2022-12-31T09:58:56;4.05;;;0.85;;
48203;SDS011;33994;50.998;5.864;2022-12-31T10:02:10;3.33;;;0.80;;
48203;SDS011;33994;50.998;5.864;2022-12-31T10:05:37;4.43;;;1.00;;
48203;SDS011;33994;50.998;5.864;2022-12-31T10:08:50;7.43;;;1.30;;
48203;SDS011;33994;50.998;5.864;2022-12-31T10:12:22;2.53;;;0.73;;
48203;SDS011;33994;50.998;5.864;2022-12-31T10:16:00;4.13;;;1.45;;
48203;SDS011;33994;50.998;5.864;2022-12-31T10:23:00;5.05;;;1.48;;
48203;SDS011;33994;50.998;5.864;2022-12-31T10:26:22;3.40;;;0.93;;
48203;SDS011;33994;50.998;5.864;2022-12-31T10:29:35;3.20;;;1.25;;
48203;SDS011;33994;50.998;5.864;2022-12-31T10:32:51;3.83;;;1.00;;
48203;SDS011;33994;50.998;5.864;2022-12-31T10:36:10;4.78;;;0.90;;
48203;SDS011;33994;50.998;5.864;2022-12-31T10:39:29;5.82;;;1.40;;
48203;SDS011;33994;50.998;5.864;2022-12-31T10:42:51;3.72;;;0.77;;
48203;SDS011;33994;50.998;5.864;2022-12-31T10:46:17;7.35;;;1.20;;
48203;SDS011;33994;50.998;5.864;2022-12-31T10:49:51;6.85;;;1.17;;
48203;SDS011;33994;50.998;5.864;2022-12-31T10:53:24;7.00;;;1.10;;
48203;SDS011;33994;50.998;5.864;2022-12-31T11:00:16;6.15;;;1.05;;
48203;SDS011;33994;50.998;5.864;2022-12-31T11:03:36;5.20;;;1.42;;
48203;SDS011;33994;50.998;5.864;2022-12-31T11:07:22;7.20;;;1.90;;
48203;SDS011;33994;50.998;5.864;2022-12-31T11:10:57;6.82;;;1.10;;
48203;SDS011;33994;50.998;5.864;2022-12-31T11:14:27;5.57;;;1.23;;
48203;SDS011;33994;50.998;5.864;2022-12-31T11:17:43;4.43;;;1.10;;
48203;SDS011;33994;50.998;5.864;2022-12-31T11:21:02;2.90;;;0.90;;
48203;SDS011;33994;50.998;5.864;2022-12-31T11:24:21;5.95;;;1.40;;
48203;SDS011;33994;50.998;5.864;2022-12-31T11:27:40;5.00;;;0.95;;
48203;SDS011;33994;50.998;5.864;2022-12-31T11:31:10;4.68;;;1.02;;
48203;SDS011;33994;50.998;5.864;2022-12-31T11:34:24;9.05;;;1.50;;
48203;SDS011;33994;50.998;5.864;2022-12-31T11:37:45;8.85;;;2.40;;
48203;SDS011;33994;50.998;5.864;2022-12-31T11:40:54;8.05;;;1.30;;
48203;SDS011;33994;50.998;5.864;2022-12-31T11:44:04;7.03;;;1.30;;
48203;SDS011;33994;50.998;5.864;2022-12-31T11:47:27;6.25;;;1.50;;
48203;SDS011;33994;50.998;5.864;2022-12-31T11:50:48;5.70;;;1.58;;
48203;SDS011;33994;50.998;5.864;2022-12-31T11:54:02;6.75;;;1.40;;
48203;SDS011;33994;50.998;5.864;2022-12-31T11:57:24;5.38;;;1.17;;
48203;SDS011;33994;50.998;5.864;2022-12-31T12:00:33;9.82;;;1.67;;
48203;SDS011;33994;50.998;5.864;2022-12-31T12:03:45;8.75;;;1.27;;
48203;SDS011;33994;50.998;5.864;2022-12-31T12:06:49;6.78;;;1.60;;
48203;SDS011;33994;50.998;5.864;2022-12-31T12:09:53;4.68;;;0.93;;
48203;SDS011;33994;50.998;5.864;2022-12-31T12:12:58;4.93;;;1.50;;
48203;SDS011;33994;50.998;5.864;2022-12-31T12:16:02;3.67;;;0.95;;
48203;SDS011;33994;50.998;5.864;2022-12-31T12:19:15;4.97;;;1.40;;
48203;SDS011;33994;50.998;5.864;2022-12-31T12:22:20;5.35;;;1.17;;
48203;SDS011;33994;50.998;5.864;2022-12-31T12:25:25;4.43;;;1.02;;
48203;SDS011;33994;50.998;5.864;2022-12-31T12:28:42;6.30;;;1.35;;
48203;SDS011;33994;50.998;5.864;2022-12-31T12:31:55;3.88;;;1.40;;
48203;SDS011;33994;50.998;5.864;2022-12-31T12:35:01;6.28;;;1.20;;
48203;SDS011;33994;50.998;5.864;2022-12-31T12:38:15;8.07;;;1.50;;
48203;SDS011;33994;50.998;5.864;2022-12-31T12:41:22;4.13;;;1.10;;
48203;SDS011;33994;50.998;5.864;2022-12-31T12:44:26;7.10;;;1.00;;
48203;SDS011;33994;50.998;5.864;2022-12-31T12:47:29;7.35;;;1.30;;
48203;SDS011;33994;50.998;5.864;2022-12-31T12:50:35;6.35;;;1.58;;
48203;SDS011;33994;50.998;5.864;2022-12-31T12:53:44;3.60;;;1.25;;
48203;SDS011;33994;50.998;5.864;2022-12-31T12:57:01;4.70;;;1.42;;
48203;SDS011;33994;50.998;5.864;2022-12-31T13:00:13;9.55;;;1.65;;
48203;SDS011;33994;50.998;5.864;2022-12-31T13:07:10;4.18;;;1.00;;
48203;SDS011;33994;50.998;5.864;2022-12-31T13:10:25;4.88;;;1.52;;
48203;SDS011;33994;50.998;5.864;2022-12-31T13:13:42;9.93;;;1.45;;
48203;SDS011;33994;50.998;5.864;2022-12-31T13:16:54;5.22;;;1.27;;
48203;SDS011;33994;50.998;5.864;2022-12-31T13:20:07;6.97;;;2.58;;
48203;SDS011;33994;50.998;5.864;2022-12-31T13:23:21;6.40;;;1.70;;
48203;SDS011;33994;50.998;5.864;2022-12-31T13:26:33;5.57;;;1.35;;
48203;SDS011;33994;50.998;5.864;2022-12-31T13:29:43;5.25;;;1.63;;
48203;SDS011;33994;50.998;5.864;2022-12-31T13:32:50;4.55;;;1.63;;
48203;SDS011;33994;50.998;5.864;2022-12-31T13:35:59;6.05;;;1.73;;
48203;SDS011;33994;50.998;5.864;2022-12-31T13:39:06;7.30;;;1.42;;
48203;SDS011;33994;50.998;5.864;2022-12-31T13:42:17;7.82;;;1.83;;
48203;SDS011;33994;50.998;5.864;2022-12-31T13:48:32;4.57;;;1.30;;
48203;SDS011;33994;50.998;5.864;2022-12-31T13:51:39;6.00;;;1.60;;
48203;SDS011;33994;50.998;5.864;2022-12-31T13:54:51;9.93;;;1.70;;
48203;SDS011;33994;50.998;5.864;2022-12-31T13:58:00;12.25;;;1.80;;
48203;SDS011;33994;50.998;5.864;2022-12-31T14:01:13;5.82;;;1.90;;
48203;SDS011;33994;50.998;5.864;2022-12-31T14:04:23;5.30;;;1.52;;
48203;SDS011;33994;50.998;5.864;2022-12-31T14:07:34;7.30;;;1.60;;
48203;SDS011;33994;50.998;5.864;2022-12-31T14:10:43;9.20;;;1.80;;
48203;SDS011;33994;50.998;5.864;2022-12-31T14:14:00;4.00;;;1.40;;
48203;SDS011;33994;50.998;5.864;2022-12-31T14:20:23;5.70;;;2.17;;
48203;SDS011;33994;50.998;5.864;2022-12-31T14:23:41;3.92;;;1.40;;
48203;SDS011;33994;50.998;5.864;2022-12-31T14:26:54;8.70;;;1.33;;
48203;SDS011;33994;50.998;5.864;2022-12-31T14:30:00;6.72;;;1.95;;
48203;SDS011;33994;50.998;5.864;2022-12-31T14:33:09;4.03;;;1.77;;
48203;SDS011;33994;50.998;5.864;2022-12-31T14:36:23;4.60;;;1.58;;
48203;SDS011;33994;50.998;5.864;2022-12-31T14:39:37;6.82;;;2.25;;
48203;SDS011;33994;50.998;5.864;2022-12-31T14:42:54;9.45;;;2.03;;
48203;SDS011;33994;50.998;5.864;2022-12-31T14:46:09;3.88;;;1.50;;
48203;SDS011;33994;50.998;5.864;2022-12-31T14:49:23;6.43;;;2.42;;
48203;SDS011;33994;50.998;5.864;2022-12-31T14:52:46;7.07;;;2.50;;
48203;SDS011;33994;50.998;5.864;2022-12-31T14:55:58;7.68;;;2.80;;
48203;SDS011;33994;50.998;5.864;2022-12-31T15:02:25;6.15;;;1.98;;
48203;SDS011;33994;50.998;5.864;2022-12-31T15:05:31;6.60;;;1.90;;
48203;SDS011;33994;50.998;5.864;2022-12-31T15:08:39;5.68;;;2.35;;
48203;SDS011;33994;50.998;5.864;2022-12-31T15:11:58;5.80;;;1.80;;
48203;SDS011;33994;50.998;5.864;2022-12-31T15:15:20;6.00;;;1.83;;
48203;SDS011;33994;50.998;5.864;2022-12-31T15:18:39;5.03;;;1.90;;
48203;SDS011;33994;50.998;5.864;2022-12-31T15:21:58;5.65;;;1.58;;
48203;SDS011;33994;50.998;5.864;2022-12-31T15:25:20;7.40;;;1.35;;
48203;SDS011;33994;50.998;5.864;2022-12-31T15:28:30;6.15;;;2.20;;
48203;SDS011;33994;50.998;5.864;2022-12-31T15:31:43;6.82;;;1.70;;
48203;SDS011;33994;50.998;5.864;2022-12-31T15:34:58;7.28;;;1.80;;
48203;SDS011;33994;50.998;5.864;2022-12-31T15:38:15;5.85;;;2.70;;
48203;SDS011;33994;50.998;5.864;2022-12-31T15:41:25;5.03;;;1.50;;
48203;SDS011;33994;50.998;5.864;2022-12-31T15:44:31;5.72;;;1.85;;
48203;SDS011;33994;50.998;5.864;2022-12-31T15:47:46;3.95;;;1.60;;
48203;SDS011;33994;50.998;5.864;2022-12-31T15:50:55;7.05;;;2.17;;
48203;SDS011;33994;50.998;5.864;2022-12-31T15:54:00;7.50;;;2.15;;
48203;SDS011;33994;50.998;5.864;2022-12-31T15:57:06;6.72;;;1.98;;
48203;SDS011;33994;50.998;5.864;2022-12-31T16:00:18;4.82;;;1.90;;
48203;SDS011;33994;50.998;5.864;2022-12-31T16:03:25;5.25;;;2.50;;
48203;SDS011;33994;50.998;5.864;2022-12-31T16:06:31;4.57;;;1.73;;
48203;SDS011;33994;50.998;5.864;2022-12-31T16:09:37;5.07;;;1.90;;
48203;SDS011;33994;50.998;5.864;2022-12-31T16:12:41;6.53;;;2.88;;
48203;SDS011;33994;50.998;5.864;2022-12-31T16:15:46;5.13;;;2.20;;
48203;SDS011;33994;50.998;5.864;2022-12-31T16:18:52;4.25;;;2.05;;
48203;SDS011;33994;50.998;5.864;2022-12-31T16:21:57;7.50;;;4.15;;
48203;SDS011;33994;50.998;5.864;2022-12-31T16:25:04;12.30;;;4.37;;
48203;SDS011;33994;50.998;5.864;2022-12-31T16:28:12;7.90;;;2.65;;
48203;SDS011;33994;50.998;5.864;2022-12-31T16:31:19;5.63;;;1.88;;
48203;SDS011;33994;50.998;5.864;2022-12-31T16:34:24;6.05;;;2.25;;
48203;SDS011;33994;50.998;5.864;2022-12-31T16:37:29;6.43;;;2.08;;
48203;SDS011;33994;50.998;5.864;2022-12-31T16:40:32;3.53;;;1.75;;
48203;SDS011;33994;50.998;5.864;2022-12-31T16:43:37;10.25;;;3.40;;
48203;SDS011;33994;50.998;5.864;2022-12-31T16:46:41;12.32;;;7.50;;
48203;SDS011;33994;50.998;5.864;2022-12-31T16:49:46;9.55;;;2.83;;
48203;SDS011;33994;50.998;5.864;2022-12-31T16:55:59;6.72;;;2.10;;
48203;SDS011;33994;50.998;5.864;2022-12-31T16:59:05;6.20;;;1.92;;
48203;SDS011;33994;50.998;5.864;2022-12-31T17:02:16;6.93;;;2.13;;
48203;SDS011;33994;50.998;5.864;2022-12-31T17:05:24;4.38;;;1.95;;
48203;SDS011;33994;50.998;5.864;2022-12-31T17:08:37;5.90;;;1.80;;
48203;SDS011;33994;50.998;5.864;2022-12-31T17:11:42;8.55;;;2.10;;
48203;SDS011;33994;50.998;5.864;2022-12-31T17:14:47;6.88;;;3.10;;
48203;SDS011;33994;50.998;5.864;2022-12-31T17:17:52;7.68;;;2.58;;
48203;SDS011;33994;50.998;5.864;2022-12-31T17:21:03;8.50;;;2.70;;
48203;SDS011;33994;50.998;5.864;2022-12-31T17:24:10;6.30;;;2.17;;
48203;SDS011;33994;50.998;5.864;2022-12-31T17:27:15;8.60;;;2.55;;
48203;SDS011;33994;50.998;5.864;2022-12-31T17:30:20;9.05;;;2.20;;
48203;SDS011;33994;50.998;5.864;2022-12-31T17:33:33;9.98;;;2.95;;
48203;SDS011;33994;50.998;5.864;2022-12-31T17:36:37;6.00;;;2.58;;
48203;SDS011;33994;50.998;5.864;2022-12-31T17:39:43;9.15;;;3.25;;
48203;SDS011;33994;50.998;5.864;2022-12-31T17:42:49;10.15;;;2.70;;
48203;SDS011;33994;50.998;5.864;2022-12-31T17:45:52;7.80;;;2.67;;
48203;SDS011;33994;50.998;5.864;2022-12-31T17:48:58;7.00;;;2.88;;
48203;SDS011;33994;50.998;5.864;2022-12-31T17:52:08;10.80;;;3.33;;
48203;SDS011;33994;50.998;5.864;2022-12-31T17:55:13;13.98;;;5.07;;
48203;SDS011;33994;50.998;5.864;2022-12-31T17:58:17;9.13;;;2.53;;
48203;SDS011;33994;50.998;5.864;2022-12-31T18:01:25;7.03;;;2.35;;
48203;SDS011;33994;50.998;5.864;2022-12-31T18:04:28;9.93;;;3.00;;
48203;SDS011;33994;50.998;5.864;2022-12-31T18:07:33;8.32;;;2.60;;
48203;SDS011;33994;50.998;5.864;2022-12-31T18:10:36;11.75;;;2.80;;
48203;SDS011;33994;50.998;5.864;2022-12-31T18:13:41;8.60;;;2.63;;
48203;SDS011;33994;50.998;5.864;2022-12-31T18:16:44;7.70;;;2.55;;
48203;SDS011;33994;50.998;5.864;2022-12-31T18:19:47;14.02;;;3.33;;
48203;SDS011;33994;50.998;5.864;2022-12-31T18:22:52;12.63;;;2.88;;
48203;SDS011;33994;50.998;5.864;2022-12-31T18:25:55;6.13;;;2.40;;
48203;SDS011;33994;50.998;5.864;2022-12-31T18:28:59;5.15;;;2.58;;
48203;SDS011;33994;50.998;5.864;2022-12-31T18:32:13;6.35;;;3.03;;
48203;SDS011;33994;50.998;5.864;2022-12-31T18:35:21;7.72;;;2.63;;
48203;SDS011;33994;50.998;5.864;2022-12-31T18:38:25;14.18;;;3.08;;
48203;SDS011;33994;50.998;5.864;2022-12-31T18:41:28;10.50;;;2.95;;
48203;SDS011;33994;50.998;5.864;2022-12-31T18:44:37;10.73;;;3.88;;
48203;SDS011;33994;50.998;5.864;2022-12-31T18:47:41;8.00;;;3.55;;
48203;SDS011;33994;50.998;5.864;2022-12-31T18:50:44;10.98;;;3.95;;
48203;SDS011;33994;50.998;5.864;2022-12-31T18:53:49;9.45;;;3.22;;
48203;SDS011;33994;50.998;5.864;2022-12-31T18:56:52;12.02;;;3.42;;
48203;SDS011;33994;50.998;5.864;2022-12-31T18:59:55;9.38;;;3.58;;
48203;SDS011;33994;50.998;5.864;2022-12-31T19:02:58;11.43;;;2.90;;
48203;SDS011;33994;50.998;5.864;2022-12-31T19:06:01;10.50;;;2.35;;
48203;SDS011;33994;50.998;5.864;2022-12-31T19:09:06;6.20;;;2.88;;
48203;SDS011;33994;50.998;5.864;2022-12-31T19:12:10;6.97;;;2.55;;
48203;SDS011;33994;50.998;5.864;2022-12-31T19:15:22;11.30;;;2.90;;
48203;SDS011;33994;50.998;5.864;2022-12-31T19:18:27;10.07;;;2.80;;
48203;SDS011;33994;50.998;5.864;2022-12-31T19:21:30;9.02;;;3.38;;
48203;SDS011;33994;50.998;5.864;2022-12-31T19:24:34;6.60;;;2.65;;
48203;SDS011;33994;50.998;5.864;2022-12-31T19:27:38;9.88;;;2.92;;